createdAt,value
2023-02-25T00:01:28.955Z,2.30
2023-02-25T00:03:56.754Z,2.30
2023-02-25T00:06:24.585Z,2.40
2023-02-25T00:08:52.778Z,2.40
2023-02-25T00:11:20.522Z,2.40
2023-02-25T00:13:47.442Z,2.40
2023-02-25T00:16:15.091Z,2.30
2023-02-25T00:18:44.321Z,2.30
2023-02-25T00:21:17.575Z,2.30
2023-02-25T00:23:47.563Z,2.40
2023-02-25T00:26:17.336Z,2.30
2023-02-25T00:28:44.377Z,2.40
2023-02-25T00:31:14.304Z,2.50
2023-02-25T00:33:41.990Z,2.40
2023-02-25T00:36:21.201Z,2.40
2023-02-25T00:38:49.766Z,2.40
2023-02-25T00:41:19.083Z,2.40
2023-02-25T00:43:50.604Z,2.40
2023-02-25T00:46:17.815Z,2.40
2023-02-25T00:48:44.637Z,2.40
2023-02-25T00:51:14.459Z,2.40
2023-02-25T00:53:41.625Z,2.30
2023-02-25T00:56:11.548Z,2.40
2023-02-25T00:58:38.765Z,2.40
2023-02-25T01:01:15.971Z,2.40
2023-02-25T01:03:42.887Z,2.40
2023-02-25T01:06:09.978Z,2.30
2023-02-25T01:08:37.234Z,2.30
2023-02-25T01:11:27.629Z,2.30
2023-02-25T01:14:00.246Z,2.40
2023-02-25T01:16:29.526Z,2.40
2023-02-25T01:19:00.230Z,2.40
2023-02-25T01:21:30.029Z,2.40
2023-02-25T01:23:59.685Z,2.40
2023-02-25T01:26:27.994Z,2.40
2023-02-25T01:28:55.768Z,2.40
2023-02-25T01:31:29.041Z,2.40
2023-02-25T01:34:00.907Z,2.40
2023-02-25T01:36:28.372Z,2.40
2023-02-25T01:38:57.149Z,2.30
2023-02-25T01:41:25.380Z,2.40
2023-02-25T01:44:03.962Z,2.30
2023-02-25T01:46:30.895Z,2.40
2023-02-25T01:48:58.227Z,2.40
2023-02-25T01:51:27.655Z,2.40
2023-02-25T01:53:56.398Z,2.40
2023-02-25T01:56:25.862Z,2.40
2023-02-25T01:58:53.754Z,2.40
2023-02-25T02:01:23.182Z,2.40
2023-02-25T02:03:51.188Z,2.40
2023-02-25T02:06:33.505Z,2.40
2023-02-25T02:09:01.445Z,2.40
2023-02-25T02:11:29.736Z,2.30
2023-02-25T02:13:58.507Z,2.30
2023-02-25T02:17:09.613Z,2.40
2023-02-25T02:19:49.636Z,2.40
2023-02-25T02:22:37.588Z,2.30
2023-02-25T02:25:30.419Z,2.30
2023-02-25T02:28:22.028Z,2.30
2023-02-25T02:31:19.446Z,2.30
2023-02-25T02:34:16.511Z,2.30
2023-02-25T02:37:24.217Z,2.30
2023-02-25T02:40:15.132Z,2.30
2023-02-25T02:42:59.505Z,2.40
2023-02-25T02:45:34.523Z,2.30
2023-02-25T02:48:17.127Z,2.30
2023-02-25T02:50:47.714Z,2.30
2023-02-25T02:53:32.221Z,2.30
2023-02-25T02:56:02.815Z,2.30
2023-02-25T02:58:37.018Z,2.30
2023-02-25T03:01:20.696Z,2.30
2023-02-25T03:03:59.642Z,2.30
2023-02-25T03:06:32.953Z,2.30
2023-02-25T03:09:14.964Z,2.40
2023-02-25T03:11:42.015Z,2.40
2023-02-25T03:14:08.698Z,2.40
2023-02-25T03:16:43.206Z,2.30
2023-02-25T03:19:24.592Z,2.30
2023-02-25T03:22:05.534Z,2.30
2023-02-25T03:24:53.438Z,2.30
2023-02-25T03:27:28.161Z,2.30
2023-02-25T03:30:12.694Z,2.30
2023-02-25T03:32:47.938Z,2.40
2023-02-25T03:35:16.215Z,2.40
2023-02-25T03:37:49.488Z,2.40
2023-02-25T03:40:17.741Z,2.30
2023-02-25T03:42:52.947Z,2.30
2023-02-25T03:45:23.447Z,2.40
2023-02-25T03:47:51.038Z,2.40
2023-02-25T03:50:28.344Z,2.40
2023-02-25T03:52:59.063Z,2.40
2023-02-25T03:56:08.442Z,2.40
2023-02-25T03:58:38.206Z,2.30
2023-02-25T04:01:15.685Z,2.20
2023-02-25T04:03:43.483Z,2.20
2023-02-25T04:06:12.691Z,2.20
2023-02-25T04:08:40.159Z,2.20
2023-02-25T04:11:06.857Z,2.20
2023-02-25T04:13:33.594Z,2.20
2023-02-25T04:16:00.276Z,2.10
2023-02-25T04:18:27.645Z,2.10
2023-02-25T04:20:54.819Z,2.10
2023-02-25T04:23:21.532Z,2.30
2023-02-25T04:25:48.308Z,2.20
2023-02-25T04:28:15.114Z,2.20
2023-02-25T04:30:42.179Z,2.30
2023-02-25T04:33:16.124Z,2.30
2023-02-25T04:35:44.098Z,2.30
2023-02-25T04:38:12.029Z,2.40
2023-02-25T04:40:38.713Z,2.40
2023-02-25T04:43:05.554Z,2.40
2023-02-25T04:45:32.154Z,2.40
2023-02-25T04:47:58.775Z,2.40
2023-02-25T04:50:25.928Z,2.40
2023-02-25T04:52:52.605Z,2.40
2023-02-25T04:55:19.870Z,2.40
2023-02-25T04:57:46.542Z,2.40
2023-02-25T05:00:19.069Z,2.50
2023-02-25T05:02:48.920Z,2.50
2023-02-25T05:05:16.710Z,2.40
2023-02-25T05:07:44.202Z,2.40
2023-02-25T05:10:13.069Z,2.30
2023-02-25T05:12:39.842Z,2.40
2023-02-25T05:15:08.419Z,2.40
2023-02-25T05:17:35.945Z,2.40
2023-02-25T05:20:06.989Z,2.40
2023-02-25T05:22:33.706Z,2.40
2023-02-25T05:25:00.401Z,2.40
2023-02-25T05:27:27.049Z,2.40
2023-02-25T05:29:54.631Z,2.30
2023-02-25T05:32:21.987Z,2.30
2023-02-25T05:34:48.881Z,2.30
2023-02-25T05:37:15.591Z,2.20
2023-02-25T05:39:42.376Z,2.20
2023-02-25T05:42:08.990Z,2.20
2023-02-25T05:44:35.653Z,2.20
2023-02-25T05:47:02.343Z,2.20
2023-02-25T05:49:29.492Z,2.10
2023-02-25T05:51:56.136Z,2.10
2023-02-25T05:54:23.198Z,2.10
2023-02-25T05:56:53.400Z,2.00
2023-02-25T05:59:20.030Z,2.00
2023-02-25T06:01:46.735Z,2.00
2023-02-25T06:04:16.833Z,2.00
2023-02-25T06:06:50.075Z,2.10
2023-02-25T06:09:20.990Z,2.10
2023-02-25T06:11:48.898Z,2.10
2023-02-25T06:14:16.568Z,2.10
2023-02-25T06:16:43.446Z,2.00
2023-02-25T06:19:11.326Z,2.00
2023-02-25T06:21:38.510Z,2.00
2023-02-25T06:24:05.856Z,2.00
2023-02-25T06:26:32.644Z,2.00
2023-02-25T06:28:59.273Z,2.00
2023-02-25T06:31:25.867Z,2.00
2023-02-25T06:33:54.829Z,2.10
2023-02-25T06:36:22.069Z,2.10
2023-02-25T06:38:49.252Z,2.10
2023-02-25T06:41:19.039Z,2.10
2023-02-25T06:43:46.142Z,2.10
2023-02-25T06:46:14.787Z,2.00
2023-02-25T06:48:41.596Z,2.10
2023-02-25T06:51:09.491Z,2.10
2023-02-25T06:53:40.803Z,2.10
2023-02-25T06:56:08.267Z,2.10
2023-02-25T06:58:36.245Z,2.20
2023-02-25T07:01:10.717Z,2.20
2023-02-25T07:03:37.772Z,2.20
2023-02-25T07:06:04.715Z,2.20
2023-02-25T07:08:31.499Z,2.20
2023-02-25T07:11:30.038Z,2.20
2023-02-25T07:13:57.245Z,2.30
2023-02-25T07:16:24.200Z,2.20
2023-02-25T07:18:51.257Z,2.30
2023-02-25T07:21:18.847Z,2.30
2023-02-25T07:23:46.347Z,2.20
2023-02-25T07:26:14.566Z,2.30
2023-02-25T07:28:42.523Z,2.30
2023-02-25T07:31:17.190Z,2.30
2023-02-25T07:33:44.135Z,2.40
2023-02-25T07:36:11.828Z,2.30
2023-02-25T07:38:38.829Z,2.20
2023-02-25T07:41:06.243Z,2.30
2023-02-25T07:43:33.228Z,2.30
2023-02-25T07:46:00.147Z,2.30
2023-02-25T07:48:27.235Z,2.30
2023-02-25T07:50:53.910Z,2.30
2023-02-25T07:53:22.379Z,2.30
2023-02-25T07:55:50.480Z,2.30
2023-02-25T07:58:17.119Z,2.30
2023-02-25T08:00:45.616Z,2.40
2023-02-25T08:03:12.558Z,2.40
2023-02-25T08:05:39.207Z,2.40
2023-02-25T08:08:06.064Z,2.20
2023-02-25T08:10:32.771Z,2.10
2023-02-25T08:12:59.756Z,2.00
2023-02-25T08:15:26.436Z,2.00
2023-02-25T08:17:55.683Z,2.00
2023-02-25T08:20:24.180Z,2.10
2023-02-25T08:22:50.877Z,2.10
2023-02-25T08:25:17.791Z,2.10
2023-02-25T08:27:44.533Z,2.20
2023-02-25T08:30:11.802Z,2.20
2023-02-25T08:32:38.928Z,2.30
2023-02-25T08:35:06.000Z,2.40
2023-02-25T08:37:33.385Z,2.50
2023-02-25T08:40:00.180Z,2.60
2023-02-25T08:42:27.180Z,2.60
2023-02-25T08:44:53.827Z,2.60
2023-02-25T08:47:20.489Z,2.60
2023-02-25T08:49:47.546Z,2.70
2023-02-25T08:52:14.560Z,2.80
2023-02-25T08:54:41.349Z,2.80
2023-02-25T08:57:08.227Z,2.90
2023-02-25T08:59:35.800Z,3.00
2023-02-25T09:02:05.329Z,3.10
2023-02-25T09:04:33.821Z,2.90
2023-02-25T09:07:01.461Z,3.00
2023-02-25T09:09:28.062Z,3.00
2023-02-25T09:11:55.544Z,2.90
2023-02-25T09:14:22.301Z,2.80
2023-02-25T09:16:49.691Z,2.90
2023-02-25T09:19:18.191Z,2.80
2023-02-25T09:21:47.953Z,2.80
2023-02-25T09:24:15.573Z,2.80
2023-02-25T09:26:42.210Z,2.90
2023-02-25T09:29:09.250Z,2.90
2023-02-25T09:31:37.443Z,3.10
2023-02-25T09:34:07.311Z,3.10
2023-02-25T09:36:34.080Z,3.10
2023-02-25T09:39:00.757Z,3.00
2023-02-25T09:41:35.499Z,2.90
2023-02-25T09:44:05.585Z,2.90
2023-02-25T09:46:34.697Z,3.00
2023-02-25T09:49:28.882Z,2.90
2023-02-25T09:52:22.464Z,2.90
2023-02-25T09:54:55.614Z,2.90
2023-02-25T09:57:23.366Z,1.90
2023-02-25T09:59:53.368Z,1.10
2023-02-25T10:02:40.893Z,0.70
2023-02-25T10:05:17.959Z,0.70
2023-02-25T10:08:39.074Z,0.80
2023-02-25T10:11:10.049Z,1.10
2023-02-25T10:14:02.281Z,1.30
2023-02-25T10:16:52.166Z,1.50
2023-02-25T10:19:37.571Z,1.80
2023-02-25T10:22:22.562Z,2.10
2023-02-25T10:24:53.757Z,2.40
2023-02-25T10:27:24.603Z,2.70
2023-02-25T10:29:59.755Z,3.10
2023-02-25T10:32:31.211Z,3.20
2023-02-25T10:35:00.972Z,3.00
2023-02-25T10:37:35.930Z,2.30
2023-02-25T10:40:04.911Z,1.40
2023-02-25T10:42:31.834Z,1.00
2023-02-25T10:45:08.075Z,0.90
2023-02-25T10:47:37.518Z,1.00
2023-02-25T10:50:18.521Z,1.00
2023-02-25T10:52:57.413Z,1.20
2023-02-25T10:55:52.633Z,1.40
2023-02-25T10:58:47.021Z,1.70
2023-02-25T11:01:20.892Z,1.80
2023-02-25T11:04:00.189Z,1.80
2023-02-25T11:06:35.191Z,1.90
2023-02-25T11:09:04.901Z,1.90
2023-02-25T11:11:37.070Z,2.00
2023-02-25T11:14:15.571Z,2.00
2023-02-25T11:16:44.836Z,1.90
2023-02-25T11:19:22.677Z,2.10
2023-02-25T11:21:50.067Z,2.30
2023-02-25T11:24:22.596Z,2.40
2023-02-25T11:26:51.930Z,2.40
2023-02-25T11:29:23.027Z,2.20
2023-02-25T11:31:58.691Z,2.20
2023-02-25T11:34:30.590Z,2.20
2023-02-25T11:37:18.915Z,2.20
2023-02-25T11:39:54.065Z,2.30
2023-02-25T11:42:27.063Z,2.40
2023-02-25T11:45:04.480Z,2.80
2023-02-25T11:47:33.511Z,3.20
2023-02-25T11:50:15.151Z,3.30
2023-02-25T11:53:01.843Z,3.30
2023-02-25T11:56:05.379Z,3.30
2023-02-25T11:58:57.768Z,3.00
2023-02-25T12:01:47.160Z,2.70
2023-02-25T12:04:53.587Z,2.40
2023-02-25T12:08:05.018Z,2.40
2023-02-25T12:11:02.624Z,2.30
2023-02-25T12:13:51.341Z,2.30
2023-02-25T12:16:44.492Z,2.40
2023-02-25T12:19:23.629Z,2.60
2023-02-25T12:22:26.815Z,3.00
2023-02-25T12:24:53.391Z,3.00
2023-02-25T12:27:34.031Z,2.80
2023-02-25T12:30:33.267Z,2.60
2023-02-25T12:33:12.080Z,2.50
2023-02-25T12:36:03.588Z,2.30
2023-02-25T12:39:02.844Z,2.30
2023-02-25T12:41:47.636Z,2.20
2023-02-25T12:44:39.770Z,2.20
2023-02-25T12:47:45.078Z,2.10
2023-02-25T12:50:23.665Z,2.20
2023-02-25T12:53:02.331Z,2.30
2023-02-25T12:55:40.920Z,2.40
2023-02-25T12:58:33.491Z,2.70
2023-02-25T13:01:13.100Z,2.80
2023-02-25T13:03:57.914Z,2.80
2023-02-25T13:06:45.665Z,2.40
2023-02-25T13:09:46.051Z,2.40
2023-02-25T13:12:28.575Z,2.30
2023-02-25T13:15:20.502Z,2.20
2023-02-25T13:18:06.894Z,2.30
2023-02-25T13:21:02.452Z,2.50
2023-02-25T13:23:47.466Z,2.80
2023-02-25T13:26:51.437Z,2.90
2023-02-25T13:30:13.397Z,2.70
2023-02-25T13:33:11.170Z,2.70
2023-02-25T13:36:18.742Z,2.80
2023-02-25T13:39:10.227Z,2.70
2023-02-25T13:41:46.272Z,2.70
2023-02-25T13:44:46.913Z,2.70
2023-02-25T13:47:28.693Z,2.60
2023-02-25T13:50:21.585Z,2.50
2023-02-25T13:53:20.068Z,2.50
2023-02-25T13:56:07.216Z,2.50
2023-02-25T13:59:02.996Z,2.40
2023-02-25T14:02:15.677Z,2.40
2023-02-25T14:05:11.169Z,2.40
2023-02-25T14:08:15.467Z,2.50
2023-02-25T14:10:54.851Z,2.40
2023-02-25T14:13:41.868Z,2.40
2023-02-25T14:16:44.710Z,2.30
2023-02-25T14:19:55.262Z,2.40
2023-02-25T14:22:39.860Z,2.40
2023-02-25T14:25:22.638Z,2.40
2023-02-25T14:28:26.845Z,2.40
2023-02-25T14:30:59.543Z,2.30
2023-02-25T14:33:41.951Z,2.40
2023-02-25T14:36:43.338Z,2.30
2023-02-25T14:39:32.521Z,2.20
2023-02-25T14:42:14.921Z,2.20
2023-02-25T14:44:50.399Z,2.20
2023-02-25T14:47:25.306Z,2.20
2023-02-25T14:49:54.919Z,2.20
2023-02-25T14:52:36.636Z,2.30
2023-02-25T14:55:24.228Z,2.30
2023-02-25T14:58:18.830Z,2.30
2023-02-25T15:00:51.515Z,2.30
2023-02-25T15:03:35.842Z,2.30
2023-02-25T15:06:21.558Z,2.40
2023-02-25T15:09:37.040Z,2.40
2023-02-25T15:12:06.517Z,2.30
2023-02-25T15:14:54.385Z,2.30
2023-02-25T15:17:21.238Z,2.30
2023-02-25T15:19:56.674Z,2.30
2023-02-25T15:22:29.349Z,2.40
2023-02-25T15:25:20.901Z,2.30
2023-02-25T15:27:56.746Z,2.30
2023-02-25T15:30:26.380Z,2.30
2023-02-25T15:33:01.994Z,2.30
2023-02-25T15:35:34.513Z,2.30
2023-02-25T15:38:02.110Z,2.20
2023-02-25T15:40:34.748Z,2.10
2023-02-25T15:43:10.528Z,2.10
2023-02-25T15:45:38.828Z,2.00
2023-02-25T15:48:08.206Z,2.00
2023-02-25T15:50:43.898Z,1.80
2023-02-25T15:53:25.480Z,1.80
2023-02-25T15:56:04.334Z,1.90
2023-02-25T15:58:31.050Z,2.00
2023-02-25T16:01:36.643Z,2.00
2023-02-25T16:04:26.317Z,1.90
2023-02-25T16:06:54.225Z,2.00
2023-02-25T16:09:21.404Z,1.90
2023-02-25T16:11:49.418Z,1.80
2023-02-25T16:14:30.090Z,1.90
2023-02-25T16:16:59.211Z,1.90
2023-02-25T16:19:30.616Z,1.80
2023-02-25T16:22:19.128Z,1.80
2023-02-25T16:24:52.191Z,1.70
2023-02-25T16:27:33.407Z,1.70
2023-02-25T16:30:41.330Z,1.60
2023-02-25T16:33:21.291Z,1.70
2023-02-25T16:35:55.379Z,1.60
2023-02-25T16:38:47.747Z,1.60
2023-02-25T16:41:15.268Z,1.60
2023-02-25T16:43:43.468Z,1.70
2023-02-25T16:46:20.192Z,1.70
2023-02-25T16:48:51.341Z,1.70
2023-02-25T16:51:32.915Z,1.60
2023-02-25T16:54:03.737Z,1.60
2023-02-25T16:56:32.458Z,1.60
2023-02-25T16:59:14.019Z,1.40
2023-02-25T17:01:57.357Z,1.40
2023-02-25T17:04:33.539Z,1.40
2023-02-25T17:07:07.843Z,1.30
2023-02-25T17:09:35.406Z,1.30
2023-02-25T17:12:04.135Z,1.30
2023-02-25T17:14:31.630Z,1.30
2023-02-25T17:16:58.987Z,1.20
2023-02-25T17:19:26.698Z,1.10
2023-02-25T17:21:58.554Z,1.00
2023-02-25T17:24:30.912Z,1.00
2023-02-25T17:26:57.855Z,1.00
2023-02-25T17:29:36.487Z,0.90
2023-02-25T17:32:28.102Z,0.90
2023-02-25T17:34:58.985Z,0.90
2023-02-25T17:37:29.058Z,0.90
2023-02-25T17:39:56.619Z,0.90
2023-02-25T17:42:32.145Z,0.80
2023-02-25T17:45:00.745Z,0.80
2023-02-25T17:47:31.251Z,0.80
2023-02-25T17:50:01.450Z,0.80
2023-02-25T17:52:32.302Z,0.70
2023-02-25T17:55:02.030Z,0.70
2023-02-25T17:57:31.121Z,0.70
2023-02-25T18:00:21.148Z,0.70
2023-02-25T18:02:47.997Z,0.60
2023-02-25T18:05:21.348Z,0.60
2023-02-25T18:08:06.640Z,0.60
2023-02-25T18:10:33.251Z,0.60
2023-02-25T18:13:01.816Z,0.50
2023-02-25T18:15:33.632Z,0.50
2023-02-25T18:18:07.183Z,0.50
2023-02-25T18:20:35.398Z,0.50
2023-02-25T18:23:03.055Z,0.50
2023-02-25T18:25:37.403Z,0.50
2023-02-25T18:28:06.697Z,0.40
2023-02-25T18:30:33.751Z,0.40
2023-02-25T18:33:00.518Z,0.40
2023-02-25T18:35:29.277Z,0.40
2023-02-25T18:37:57.587Z,0.40
2023-02-25T18:40:36.673Z,0.30
2023-02-25T18:43:04.330Z,0.30
2023-02-25T18:45:33.093Z,0.30
2023-02-25T18:48:00.754Z,0.30
2023-02-25T18:50:31.829Z,0.30
2023-02-25T18:52:58.805Z,0.30
2023-02-25T18:55:28.927Z,0.30
2023-02-25T18:57:55.788Z,0.20
2023-02-25T19:00:24.395Z,0.20
2023-02-25T19:02:57.768Z,0.30
2023-02-25T19:05:25.095Z,0.20
2023-02-25T19:07:52.470Z,0.10
2023-02-25T19:10:20.565Z,0.10
2023-02-25T19:12:49.523Z,0.20
2023-02-25T19:15:19.886Z,0.20
2023-02-25T19:17:47.485Z,0.20
2023-02-25T19:20:16.413Z,0.20
2023-02-25T19:22:45.012Z,0.20
2023-02-25T19:25:26.868Z,0.20
2023-02-25T19:27:55.508Z,0.20
2023-02-25T19:30:25.697Z,0.20
2023-02-25T19:32:53.506Z,0.10
2023-02-25T19:35:20.155Z,0.00
2023-02-25T19:37:47.158Z,0.00
2023-02-25T19:40:15.769Z,0.00
2023-02-25T19:42:44.417Z,0.00
2023-02-25T19:45:14.679Z,-0.10
2023-02-25T19:47:41.479Z,-0.10
2023-02-25T19:50:09.547Z,-0.20
2023-02-25T19:52:36.143Z,-0.10
2023-02-25T19:55:03.517Z,-0.20
2023-02-25T19:57:30.547Z,-0.20
2023-02-25T19:59:57.237Z,-0.20
2023-02-25T20:02:24.419Z,-0.20
2023-02-25T20:04:51.050Z,-0.20
2023-02-25T20:07:17.740Z,-0.20
2023-02-25T20:09:44.359Z,-0.20
2023-02-25T20:12:12.017Z,-0.20
2023-02-25T20:14:38.669Z,-0.20
2023-02-25T20:17:05.357Z,-0.10
2023-02-25T20:19:32.839Z,-0.10
2023-02-25T20:22:01.158Z,-0.10
2023-02-25T20:24:28.551Z,-0.10
2023-02-25T20:26:56.035Z,-0.10
2023-02-25T20:29:23.366Z,-0.10
2023-02-25T20:31:50.177Z,-0.10
2023-02-25T20:34:20.633Z,-0.10
2023-02-25T20:37:02.286Z,0.00
2023-02-25T20:39:37.626Z,0.00
2023-02-25T20:42:06.072Z,0.00
2023-02-25T20:44:33.026Z,0.00
2023-02-25T20:46:59.757Z,-0.10
2023-02-25T20:49:27.089Z,-0.20
2023-02-25T20:51:54.113Z,-0.10
2023-02-25T20:54:21.023Z,-0.10
2023-02-25T20:56:49.378Z,-0.10
2023-02-25T20:59:17.367Z,0.00
2023-02-25T21:01:45.168Z,-0.10
2023-02-25T21:04:12.226Z,-0.10
2023-02-25T21:06:39.332Z,-0.20
2023-02-25T21:09:07.334Z,-0.20
2023-02-25T21:11:34.262Z,-0.30
2023-02-25T21:14:00.954Z,-0.30
2023-02-25T21:16:27.906Z,-0.40
2023-02-25T21:18:54.765Z,-0.40
2023-02-25T21:21:21.909Z,-0.40
2023-02-25T21:23:51.644Z,-0.40
2023-02-25T21:26:18.612Z,-0.40
2023-02-25T21:28:46.557Z,-0.40
2023-02-25T21:31:15.194Z,-0.40
2023-02-25T21:33:42.566Z,-0.40
2023-02-25T21:36:10.789Z,-0.30
2023-02-25T21:38:38.554Z,-0.30
2023-02-25T21:41:11.138Z,-0.30
2023-02-25T21:43:38.639Z,-0.30
2023-02-25T21:46:07.751Z,-0.30
2023-02-25T21:48:34.512Z,-0.20
2023-02-25T21:51:01.162Z,-0.10
2023-02-25T21:53:28.786Z,-0.10
2023-02-25T21:55:55.855Z,-0.10
2023-02-25T21:58:23.199Z,-0.10
2023-02-25T22:00:50.701Z,0.00
2023-02-25T22:03:17.615Z,-0.10
2023-02-25T22:05:46.415Z,-0.10
2023-02-25T22:08:14.040Z,-0.10
2023-02-25T22:10:40.897Z,-0.10
2023-02-25T22:13:08.378Z,-0.20
2023-02-25T22:15:35.353Z,-0.20
2023-02-25T22:18:02.308Z,-0.20
2023-02-25T22:20:28.988Z,-0.20
2023-02-25T22:22:58.002Z,-0.30
2023-02-25T22:25:24.779Z,-0.30
2023-02-25T22:27:51.985Z,-0.40
2023-02-25T22:30:18.854Z,-0.30
2023-02-25T22:32:45.636Z,-0.30
2023-02-25T22:35:12.390Z,-0.40
2023-02-25T22:37:39.052Z,-0.30
2023-02-25T22:40:06.324Z,-0.30
2023-02-25T22:42:33.105Z,-0.30
2023-02-25T22:44:59.724Z,-0.30
2023-02-25T22:47:26.359Z,-0.30
2023-02-25T22:49:53.011Z,-0.30
2023-02-25T22:52:19.685Z,-0.30
2023-02-25T22:54:46.576Z,-0.30
2023-02-25T22:57:13.480Z,-0.40
2023-02-25T22:59:40.115Z,-0.40
2023-02-25T23:02:06.737Z,-0.40
2023-02-25T23:04:33.463Z,-0.50
2023-02-25T23:07:00.963Z,-0.50
2023-02-25T23:09:27.752Z,-0.50
2023-02-25T23:11:55.069Z,-0.60
2023-02-25T23:14:21.658Z,-0.70
2023-02-25T23:16:48.467Z,-0.70
2023-02-25T23:19:17.910Z,-0.80
2023-02-25T23:21:44.992Z,-0.80
2023-02-25T23:24:19.377Z,-0.90
2023-02-25T23:26:50.081Z,-0.90
2023-02-25T23:29:16.732Z,-0.90
2023-02-25T23:31:46.738Z,-1.00
2023-02-25T23:34:17.897Z,-1.00
2023-02-25T23:36:45.435Z,-1.00
2023-02-25T23:39:14.449Z,-1.00
2023-02-25T23:41:41.348Z,-1.10
2023-02-25T23:44:09.058Z,-1.20
2023-02-25T23:46:36.307Z,-1.20
2023-02-25T23:49:05.843Z,-1.30
2023-02-25T23:51:33.657Z,-1.30
2023-02-25T23:54:02.716Z,-1.30
2023-02-25T23:56:31.770Z,-1.30
2023-02-25T23:58:58.747Z,-1.30
